Time;durP1;ratioP1;P1;durP2;ratioP2;P2;SDS_P1;SDS_P2;PMS_P1;PMS_P2;Temp;Humidity;BMP_temperature;BMP_pressure;BME280_temperature;BME280_humidity;BME280_pressure;Samples;Min_cycle;Max_cycle;Signal;HPM_P1;HPM_P2
2022/08/20 00:00:27;;;;;;;;;;;;;;;25.13;49.41;100071.81;2035564;29;19984;-47
2022/08/20 00:01:27;;;;;;;;;;;;;;;25.13;49.17;100063.53;2036150;29;20028;-48
2022/08/20 00:02:27;;;;;;;;;;;;;;;25.12;49.29;100067.34;2043180;28;19940;-47
2022/08/20 00:03:30;;;;;;;;;;;;;;;25.12;49.25;100059.09;2041583;29;19918;-45
2022/08/20 00:04:30;;;;;;;;;;;;;;;25.12;49.28;100059.09;2042751;28;19925;-47
2022/08/20 00:05:35;;;;;;;;;;;;;;;25.13;49.42;100071.81;2043874;29;19918;-46
2022/08/20 00:06:36;;;;;;;;;;;;;;;25.13;49.34;100060.78;2042696;28;20164;-47
2022/08/20 00:07:36;;;;;;;;;;;;;;;25.12;49.40;100064.59;2042408;28;19969;-45
2022/08/20 00:08:37;;;;;;;;;;;;;;;25.13;49.48;100062.69;2045951;28;19930;-48
2022/08/20 00:09:37;;;;;;;;;;;;;;;25.13;49.42;100059.94;2045468;28;19914;-45
2022/08/20 00:10:39;;;;;;;;;;;;;;;25.13;49.27;100055.25;2043649;28;20466;-46
2022/08/20 00:11:39;;;;;;;;;;;;;;;25.13;49.21;100060.78;2045506;28;19914;-46
2022/08/20 00:12:43;;;;;;;;;;;;;;;25.14;49.48;100062.50;2043124;28;19919;-47
2022/08/20 00:13:49;;;;;;;;;;;;;;;25.13;49.40;100051.66;2046496;28;20291;-50
2022/08/20 00:14:49;;;;;;;;;;;;;;;25.13;49.32;100059.94;2043749;28;19914;-46
2022/08/20 00:15:50;;;;;;;;;;;;;;;25.13;49.40;100059.94;2045261;28;20009;-47
2022/08/20 00:16:51;;;;;;;;;;;;;;;25.13;49.41;100055.25;2045529;28;20602;-45
2022/08/20 00:17:51;;;;;;;;;;;;;;;25.13;49.51;100054.41;2042919;28;19926;-47
2022/08/20 00:18:52;;;;;;;;;;;;;;;25.13;49.12;100055.25;2034707;29;19977;-45
2022/08/20 00:19:52;;;;;;;;;;;;;;;25.13;49.21;100049.75;2034802;29;20432;-48
2022/08/20 00:20:53;;;;;;;;;;;;;;;25.13;49.42;100052.50;2042942;28;19918;-45
2022/08/20 00:21:54;;;;;;;;;;;;;;;25.14;49.21;100051.47;2042431;28;19926;-51
2022/08/20 00:22:55;;;;;;;;;;;;;;;25.13;49.34;100051.66;2042906;28;20013;-53
2022/08/20 00:23:56;;;;;;;;;;;;;;;25.13;49.28;100052.50;2043270;28;20171;-48
2022/08/20 00:24:56;;;;;;;;;;;;;;;25.13;49.28;100055.25;2047312;28;19925;-46
2022/08/20 00:25:56;;;;;;;;;;;;;;;25.13;49.41;100049.75;2043406;28;20390;-46
2022/08/20 00:26:57;;;;;;;;;;;;;;;25.13;49.48;100044.22;2040711;28;19918;-47
2022/08/20 00:27:58;;;;;;;;;;;;;;;25.13;49.23;100052.50;2037379;29;19923;-46
2022/08/20 00:28:58;;;;;;;;;;;;;;;25.13;49.23;100051.66;2043746;29;20419;-46
2022/08/20 00:29:58;;;;;;;;;;;;;;;25.13;49.57;100051.66;2043991;28;19925;-45
2022/08/20 00:30:59;;;;;;;;;;;;;;;25.13;49.32;100048.91;2034219;29;20132;-46
2022/08/20 00:31:59;;;;;;;;;;;;;;;25.13;49.45;100046.13;2034724;29;19970;-49
2022/08/20 00:33:05;;;;;;;;;;;;;;;25.12;49.48;100053.56;2041791;28;20012;-48
2022/08/20 00:34:05;;;;;;;;;;;;;;;25.13;49.49;100054.41;2042776;28;19918;-46
2022/08/20 00:35:05;;;;;;;;;;;;;;;25.13;49.45;100054.41;2034115;29;20033;-49
2022/08/20 00:36:08;;;;;;;;;;;;;;;25.12;49.35;100048.03;2038990;29;19917;-45
2022/08/20 00:37:08;;;;;;;;;;;;;;;25.12;49.42;100048.03;2034260;29;20445;-50
2022/08/20 00:38:08;;;;;;;;;;;;;;;25.11;49.22;100043.59;2033694;29;19923;-46
2022/08/20 00:39:09;;;;;;;;;;;;;;;25.12;49.40;100041.69;2040494;29;19918;-47
2022/08/20 00:40:11;;;;;;;;;;;;;;;25.11;49.27;100039.94;2040909;28;19919;-47
2022/08/20 00:41:13;;;;;;;;;;;;;;;25.11;49.43;100040.84;2035531;29;19921;-46
2022/08/20 00:42:13;;;;;;;;;;;;;;;25.11;49.25;100045.47;2035403;29;19922;-49
2022/08/20 00:43:25;;;;;;;;;;;;;;;25.10;49.41;100044.63;2043631;28;19961;-47
2022/08/20 00:44:26;;;;;;;;;;;;;;;25.11;49.46;100037.19;2043490;28;19978;-45
2022/08/20 00:45:28;;;;;;;;;;;;;;;25.10;49.20;100047.38;2042615;29;20012;-50
2022/08/20 00:46:29;;;;;;;;;;;;;;;25.10;49.35;100044.63;2042001;28;20516;-45
2022/08/20 00:47:29;;;;;;;;;;;;;;;25.09;49.22;100040.16;2044327;28;19919;-47
2022/08/20 00:48:30;;;;;;;;;;;;;;;25.09;49.31;100040.16;2042916;28;19969;-45
2022/08/20 00:49:31;;;;;;;;;;;;;;;25.09;49.33;100042.91;2034511;29;19950;-48
2022/08/20 00:50:34;;;;;;;;;;;;;;;25.09;49.43;100037.41;2026330;29;19919;-48
2022/08/20 00:51:35;;;;;;;;;;;;;;;25.09;49.17;100044.84;2033351;29;20148;-45
2022/08/20 00:52:35;;;;;;;;;;;;;;;25.09;49.31;100042.91;2041789;28;19919;-45
2022/08/20 00:53:37;;;;;;;;;;;;;;;25.09;49.47;100051.19;2042662;28;19962;-45
2022/08/20 00:54:40;;;;;;;;;;;;;;;25.09;49.26;100048.44;2042487;28;20500;-46
2022/08/20 00:55:40;;;;;;;;;;;;;;;25.10;49.39;100054.81;2042539;28;19918;-46
2022/08/20 00:56:42;;;;;;;;;;;;;;;25.10;49.37;100050.13;2045704;28;20402;-45
2022/08/20 00:57:45;;;;;;;;;;;;;;;25.09;49.19;100051.19;2041216;28;19934;-47
2022/08/20 00:58:46;;;;;;;;;;;;;;;25.10;49.35;100046.53;2037787;29;19926;-47
2022/08/20 00:59:48;;;;;;;;;;;;;;;25.09;49.29;100048.44;2042118;29;19954;-46
2022/08/20 01:00:48;;;;;;;;;;;;;;;25.10;49.19;100047.38;2042798;28;20137;-48
2022/08/20 01:01:49;;;;;;;;;;;;;;;25.10;49.39;100043.78;2042142;28;20351;-50
2022/08/20 01:02:49;;;;;;;;;;;;;;;25.10;49.28;100044.63;2042720;28;19970;-49
2022/08/20 01:03:54;;;;;;;;;;;;;;;25.10;49.19;100041.88;2042732;28;20175;-47
2022/08/20 01:04:54;;;;;;;;;;;;;;;25.09;49.34;100037.41;2043590;28;20006;-45
2022/08/20 01:05:55;;;;;;;;;;;;;;;25.10;49.23;100041.88;2042600;29;19974;-46
2022/08/20 01:06:56;;;;;;;;;;;;;;;25.10;49.23;100049.28;2043669;28;19977;-46
2022/08/20 01:07:56;;;;;;;;;;;;;;;25.10;49.49;100055.66;2042774;29;19922;-47
2022/08/20 01:09:01;;;;;;;;;;;;;;;25.10;49.25;100050.13;2042841;28;19926;-46
2022/08/20 01:10:07;;;;;;;;;;;;;;;25.09;49.24;100040.16;2046338;28;20589;-45
2022/08/20 01:11:21;;;;;;;;;;;;;;;25.10;49.45;100049.28;2042192;29;19914;-45
2022/08/20 01:12:22;;;;;;;;;;;;;;;25.10;49.42;100044.63;2044853;28;20145;-46
2022/08/20 01:13:23;;;;;;;;;;;;;;;25.10;49.42;100046.53;2048225;28;19917;-46
2022/08/20 01:15:32;;;;;;;;;;;;;;;25.10;49.44;100043.78;2047046;28;19925;-44
2022/08/20 01:16:34;;;;;;;;;;;;;;;25.10;49.25;100044.63;2041241;29;19919;-49
2022/08/20 01:17:35;;;;;;;;;;;;;;;25.09;49.32;100042.06;2037400;29;19969;-50
2022/08/20 01:18:35;;;;;;;;;;;;;;;25.09;49.17;100037.41;2041842;29;19918;-47
2022/08/20 01:19:51;;;;;;;;;;;;;;;25.09;49.24;100042.91;2042413;28;20139;-46
2022/08/20 01:20:54;;;;;;;;;;;;;;;25.10;49.45;100038.25;2042029;28;19915;-47
2022/08/20 01:21:56;;;;;;;;;;;;;;;25.09;49.35;100033.81;2041525;28;19915;-45
2022/08/20 01:23:26;;;;;;;;;;;;;;;25.09;49.34;100037.41;2047946;28;20310;-49
2022/08/20 01:24:33;;;;;;;;;;;;;;;25.09;49.38;100037.41;2042243;28;19914;-48
2022/08/20 01:25:36;;;;;;;;;;;;;;;25.08;49.16;100041.19;2040928;28;19922;-46
2022/08/20 01:26:39;;;;;;;;;;;;;;;25.08;49.46;100035.69;2029994;29;20351;-47
2022/08/20 01:27:40;;;;;;;;;;;;;;;25.07;49.33;100045.00;2042551;28;19918;-46
2022/08/20 01:28:52;;;;;;;;;;;;;;;25.08;49.22;100046.72;2042377;28;19911;-47
2022/08/20 01:29:53;;;;;;;;;;;;;;;25.07;49.39;100045.00;2036702;28;19950;-46
2022/08/20 01:30:53;;;;;;;;;;;;;;;25.07;49.33;100045.00;2042097;28;19914;-48
2022/08/20 01:31:59;;;;;;;;;;;;;;;25.07;49.43;100050.53;2042510;28;20553;-45
2022/08/20 01:33:01;;;;;;;;;;;;;;;25.08;49.22;100051.38;2042124;28;20605;-48
2022/08/20 01:34:02;;;;;;;;;;;;;;;25.07;49.33;100045.00;2042234;28;20124;-48
2022/08/20 01:35:04;;;;;;;;;;;;;;;25.06;49.46;100040.53;2038761;29;19911;-46
2022/08/20 01:36:05;;;;;;;;;;;;;;;25.06;49.40;100048.78;2024443;29;19951;-47
2022/08/20 01:37:05;;;;;;;;;;;;;;;25.06;49.47;100046.03;2032637;29;20459;-47
2022/08/20 01:38:06;;;;;;;;;;;;;;;25.06;49.23;100045.19;2034911;29;20783;-46
2022/08/20 01:39:08;;;;;;;;;;;;;;;25.06;49.32;100043.28;2033856;29;19926;-45
2022/08/20 01:40:11;;;;;;;;;;;;;;;25.06;49.36;100048.78;2041380;28;19922;-45
2022/08/20 01:41:20;;;;;;;;;;;;;;;25.06;49.30;100043.28;2036055;29;20267;-45
2022/08/20 01:42:25;;;;;;;;;;;;;;;25.06;49.21;100040.53;2035723;29;19925;-50
2022/08/20 01:43:25;;;;;;;;;;;;;;;25.06;49.37;100043.28;2040944;28;19926;-53
2022/08/20 01:44:26;;;;;;;;;;;;;;;25.07;49.17;100042.25;2042912;29;20871;-45
2022/08/20 01:45:27;;;;;;;;;;;;;;;25.06;49.21;100040.53;2041836;28;20123;-45
2022/08/20 01:46:33;;;;;;;;;;;;;;;25.06;49.25;100037.75;2043015;28;20240;-46
2022/08/20 01:47:34;;;;;;;;;;;;;;;25.06;49.36;100035.00;2037601;28;19932;-46
2022/08/20 01:48:35;;;;;;;;;;;;;;;25.06;49.24;100037.75;2042058;28;19926;-47
2022/08/20 01:49:42;;;;;;;;;;;;;;;25.06;49.31;100029.50;2042226;29;19925;-48
2022/08/20 01:50:47;;;;;;;;;;;;;;;25.06;49.28;100029.50;2038226;29;19938;-48
2022/08/20 01:51:48;;;;;;;;;;;;;;;25.07;49.33;100033.13;2042435;29;19934;-45
2022/08/20 01:52:56;;;;;;;;;;;;;;;25.06;49.38;100037.75;2042384;29;19997;-47
2022/08/20 01:53:58;;;;;;;;;;;;;;;25.05;49.38;100036.06;2042093;28;19918;-45
2022/08/20 01:54:58;;;;;;;;;;;;;;;25.06;49.19;100037.75;2042800;29;19974;-46
2022/08/20 01:56:00;;;;;;;;;;;;;;;25.07;49.37;100039.50;2042859;28;19919;-47
2022/08/20 01:57:04;;;;;;;;;;;;;;;25.07;49.44;100035.88;2042569;28;19973;-47
2022/08/20 01:58:04;;;;;;;;;;;;;;;25.06;49.28;100032.25;2043120;29;19922;-46
2022/08/20 01:59:07;;;;;;;;;;;;;;;25.06;49.22;100035.00;2042126;28;19918;-49
2022/08/20 02:00:11;;;;;;;;;;;;;;;25.07;49.39;100041.41;2041853;28;19915;-46
2022/08/20 02:01:23;;;;;;;;;;;;;;;25.06;49.33;100040.53;2043510;28;20293;-50
2022/08/20 02:02:24;;;;;;;;;;;;;;;25.07;49.22;100033.13;2033497;29;19918;-49
2022/08/20 02:03:25;;;;;;;;;;;;;;;25.07;49.22;100033.97;2042446;28;19930;-50
2022/08/20 02:04:25;;;;;;;;;;;;;;;25.06;49.22;100037.75;2042481;28;19914;-47
2022/08/20 02:05:26;;;;;;;;;;;;;;;25.06;49.43;100040.53;2033950;29;20366;-48
2022/08/20 02:06:27;;;;;;;;;;;;;;;25.07;49.14;100035.88;2034531;29;19926;-46
2022/08/20 02:07:31;;;;;;;;;;;;;;;25.06;49.26;100037.75;2041077;29;20024;-46
2022/08/20 02:08:32;;;;;;;;;;;;;;;25.05;49.42;100027.78;2042123;28;19918;-46
2022/08/20 02:09:35;;;;;;;;;;;;;;;25.06;49.41;100032.25;2042734;28;19949;-47
2022/08/20 02:10:35;;;;;;;;;;;;;;;25.06;49.47;100035.00;2041668;28;20153;-45
2022/08/20 02:11:36;;;;;;;;;;;;;;;25.06;49.37;100031.41;2041650;28;20382;-47
2022/08/20 02:12:38;;;;;;;;;;;;;;;25.06;49.41;100032.25;2043636;28;19919;-49
2022/08/20 02:13:39;;;;;;;;;;;;;;;25.05;49.33;100030.56;2041260;28;20506;-44
2022/08/20 02:14:41;;;;;;;;;;;;;;;25.04;49.40;100028.84;2042215;29;19925;-46
2022/08/20 02:15:41;;;;;;;;;;;;;;;25.05;49.39;100035.22;2043790;28;20109;-46
2022/08/20 02:16:45;;;;;;;;;;;;;;;25.03;49.25;100029.88;2033346;29;20166;-46
2022/08/20 02:17:46;;;;;;;;;;;;;;;25.04;49.47;100026.09;2033997;29;19960;-47
2022/08/20 02:18:47;;;;;;;;;;;;;;;25.03;49.17;100032.63;2041617;28;20168;-49
2022/08/20 02:19:50;;;;;;;;;;;;;;;25.03;49.20;100039.00;2042525;28;19941;-49
2022/08/20 02:20:50;;;;;;;;;;;;;;;25.04;49.31;100028.84;2042639;29;19918;-46
2022/08/20 02:21:53;;;;;;;;;;;;;;;25.03;49.25;100035.41;2040919;28;19918;-48
2022/08/20 02:22:57;;;;;;;;;;;;;;;25.02;49.40;100028.19;2042451;29;20009;-47
2022/08/20 02:23:58;;;;;;;;;;;;;;;25.02;49.19;100029.03;2042287;28;19925;-47
2022/08/20 02:24:58;;;;;;;;;;;;;;;25.04;49.38;100028.84;2033252;29;19915;-45
2022/08/20 02:25:59;;;;;;;;;;;;;;;25.02;49.35;100031.78;2034159;29;19946;-46
2022/08/20 02:26:59;;;;;;;;;;;;;;;25.02;49.39;100025.41;2042540;28;19917;-46
2022/08/20 02:28:03;;;;;;;;;;;;;;;25.02;49.37;100019.91;2042348;28;19921;-50
2022/08/20 02:29:06;;;;;;;;;;;;;;;25.02;49.39;100028.19;2042095;28;20395;-51
2022/08/20 02:30:09;;;;;;;;;;;;;;;25.03;49.18;100024.38;2044358;28;19918;-47
2022/08/20 02:31:10;;;;;;;;;;;;;;;25.03;49.15;100029.88;2042107;29;19925;-47
2022/08/20 02:32:11;;;;;;;;;;;;;;;25.03;49.27;100024.38;2042353;28;19918;-45
2022/08/20 02:33:13;;;;;;;;;;;;;;;25.03;49.32;100016.94;2041100;28;19997;-47
2022/08/20 02:34:14;;;;;;;;;;;;;;;25.03;49.11;100018.84;2042165;29;19925;-46
2022/08/20 02:35:14;;;;;;;;;;;;;;;25.02;49.29;100019.91;2041591;28;20395;-45
2022/08/20 02:36:17;;;;;;;;;;;;;;;25.03;49.12;100021.59;2034701;29;20339;-45
2022/08/20 02:37:18;;;;;;;;;;;;;;;25.03;49.18;100010.56;2033235;29;20323;-45
2022/08/20 02:38:18;;;;;;;;;;;;;;;25.04;49.32;100017.81;2041474;28;19956;-47
2022/08/20 02:39:18;;;;;;;;;;;;;;;25.03;49.24;100027.97;2041936;28;20070;-45
2022/08/20 02:40:20;;;;;;;;;;;;;;;25.03;49.28;100021.59;2042136;28;19919;-49
2022/08/20 02:41:20;;;;;;;;;;;;;;;25.03;49.19;100021.59;2041765;28;19934;-46
2022/08/20 02:42:21;;;;;;;;;;;;;;;25.02;49.14;100018.00;2033501;29;20170;-45
2022/08/20 02:43:21;;;;;;;;;;;;;;;25.03;49.24;100021.59;2017543;29;19995;-47
2022/08/20 02:44:21;;;;;;;;;;;;;;;25.02;49.34;100020.75;2024314;29;19919;-46
2022/08/20 02:45:22;;;;;;;;;;;;;;;25.04;49.22;100023.34;2041138;28;19914;-46
2022/08/20 02:46:23;;;;;;;;;;;;;;;25.03;49.30;100016.94;2041700;29;20153;-47
2022/08/20 02:47:26;;;;;;;;;;;;;;;25.03;49.35;100018.84;2040943;29;20324;-48
2022/08/20 02:48:27;;;;;;;;;;;;;;;25.03;49.41;100021.59;2041353;28;20193;-46
2022/08/20 02:49:27;;;;;;;;;;;;;;;25.02;49.17;100014.38;2042124;29;19922;-45
2022/08/20 02:50:27;;;;;;;;;;;;;;;25.02;49.20;100011.63;2042082;28;20390;-50
2022/08/20 02:51:28;;;;;;;;;;;;;;;25.02;49.39;100011.63;2043511;28;19921;-49
2022/08/20 02:52:28;;;;;;;;;;;;;;;25.02;49.28;100014.38;2042146;28;20301;-45
2022/08/20 02:53:31;;;;;;;;;;;;;;;25.02;49.17;100009.72;2042166;29;19919;-50
2022/08/20 02:54:32;;;;;;;;;;;;;;;25.02;49.24;100014.38;2042961;28;19918;-46
2022/08/20 02:55:32;;;;;;;;;;;;;;;25.02;49.13;100009.72;2041331;29;20639;-47
2022/08/20 02:56:32;;;;;;;;;;;;;;;25.02;49.21;100011.63;2042056;28;20094;-46
2022/08/20 02:57:33;;;;;;;;;;;;;;;25.02;49.24;100008.88;2040526;28;19942;-47
2022/08/20 02:58:34;;;;;;;;;;;;;;;25.02;49.30;100008.88;2039119;29;20025;-48
2022/08/20 02:59:34;;;;;;;;;;;;;;;25.01;49.15;100007.16;2041840;28;19918;-49
2022/08/20 03:00:34;;;;;;;;;;;;;;;25.02;49.21;100008.88;2041304;28;20573;-50
2022/08/20 03:01:35;;;;;;;;;;;;;;;25.01;49.47;100002.50;2041337;28;19922;-46
2022/08/20 03:02:35;;;;;;;;;;;;;;;25.01;49.45;100007.16;2041814;29;19910;-45
2022/08/20 03:03:35;;;;;;;;;;;;;;;25.01;49.36;100012.66;2041239;28;19910;-50
2022/08/20 03:04:36;;;;;;;;;;;;;;;25.01;49.34;100007.16;2033597;29;19986;-48
2022/08/20 03:05:38;;;;;;;;;;;;;;;25.00;49.26;100011.81;2037725;29;19925;-47
2022/08/20 03:06:38;;;;;;;;;;;;;;;25.00;49.30;100010.97;2045148;28;19978;-48
2022/08/20 03:07:39;;;;;;;;;;;;;;;24.99;49.24;100003.75;2042076;29;19923;-45
2022/08/20 03:08:40;;;;;;;;;;;;;;;25.00;49.20;100013.72;2041561;28;20102;-47
2022/08/20 03:09:40;;;;;;;;;;;;;;;24.99;49.40;100010.13;2042035;28;20005;-46
2022/08/20 03:10:41;;;;;;;;;;;;;;;24.99;49.23;100012.88;2042364;29;19981;-49
2022/08/20 03:11:42;;;;;;;;;;;;;;;24.99;49.20;100009.28;2040683;28;19918;-47
2022/08/20 03:12:42;;;;;;;;;;;;;;;24.99;49.38;100015.63;2041582;29;19958;-47
2022/08/20 03:13:42;;;;;;;;;;;;;;;25.00;49.31;100016.47;2041841;28;19922;-46
2022/08/20 03:14:43;;;;;;;;;;;;;;;25.00;49.29;100016.47;2041534;28;19923;-47
2022/08/20 03:15:45;;;;;;;;;;;;;;;24.99;49.22;100010.13;2041887;28;19918;-47
2022/08/20 03:16:45;;;;;;;;;;;;;;;25.00;49.25;100016.47;2040850;28;19965;-47
2022/08/20 03:17:46;;;;;;;;;;;;;;;25.01;49.38;100012.66;2042787;28;19922;-45
2022/08/20 03:18:46;;;;;;;;;;;;;;;25.00;49.29;100010.97;2041402;28;19945;-48
2022/08/20 03:19:47;;;;;;;;;;;;;;;25.00;49.27;100010.97;2043002;28;20347;-46
2022/08/20 03:20:48;;;;;;;;;;;;;;;25.00;49.19;100010.97;2041711;28;19922;-46
2022/08/20 03:21:48;;;;;;;;;;;;;;;25.00;49.10;100005.44;2035344;29;19914;-50
2022/08/20 03:22:50;;;;;;;;;;;;;;;25.00;49.14;100011.81;2034709;29;19941;-49
2022/08/20 03:23:50;;;;;;;;;;;;;;;25.00;49.29;100005.44;2043216;28;19926;-47
2022/08/20 03:24:50;;;;;;;;;;;;;;;25.00;49.25;100010.97;2043538;28;19921;-46
2022/08/20 03:25:50;;;;;;;;;;;;;;;24.99;49.28;100007.34;2043657;28;19918;-48
2022/08/20 03:26:51;;;;;;;;;;;;;;;24.99;49.21;100003.75;2043354;28;19936;-46
2022/08/20 03:27:51;;;;;;;;;;;;;;;25.00;49.40;100005.44;2043655;28;19918;-44
2022/08/20 03:28:52;;;;;;;;;;;;;;;25.00;49.14;100008.22;2043645;29;20379;-46
2022/08/20 03:29:52;;;;;;;;;;;;;;;25.00;49.13;100005.44;2043048;28;20427;-45
2022/08/20 03:30:53;;;;;;;;;;;;;;;24.99;49.35;100007.34;2034974;29;19919;-47
2022/08/20 03:31:53;;;;;;;;;;;;;;;25.00;49.13;100005.44;2035244;29;19919;-47
2022/08/20 03:32:54;;;;;;;;;;;;;;;25.00;49.36;100005.44;2043035;29;20170;-45
2022/08/20 03:33:54;;;;;;;;;;;;;;;25.00;49.41;100000.78;2043803;28;20152;-48
2022/08/20 03:34:55;;;;;;;;;;;;;;;25.00;49.34;100005.44;2043376;28;20080;-48
2022/08/20 03:35:55;;;;;;;;;;;;;;;25.00;49.37;100010.97;2043169;29;19914;-44
2022/08/20 03:36:55;;;;;;;;;;;;;;;24.99;49.16;100001.00;2043656;28;19926;-46
2022/08/20 03:37:56;;;;;;;;;;;;;;;24.99;49.19;100001.84;2042342;28;19961;-46
2022/08/20 03:38:58;;;;;;;;;;;;;;;25.00;49.18;100008.22;2043699;28;20626;-47
2022/08/20 03:39:58;;;;;;;;;;;;;;;24.99;49.29;100007.34;2043179;28;19919;-47
2022/08/20 03:40:59;;;;;;;;;;;;;;;24.99;49.30;100009.28;2042766;28;19969;-46
2022/08/20 03:42:00;;;;;;;;;;;;;;;24.99;49.13;100006.50;2043614;29;20414;-46
2022/08/20 03:43:00;;;;;;;;;;;;;;;24.99;49.27;100001.00;2042673;28;19919;-46
2022/08/20 03:44:00;;;;;;;;;;;;;;;24.98;49.42;100008.38;2043105;28;19977;-46
2022/08/20 03:45:01;;;;;;;;;;;;;;;24.98;49.44;100002.03;2044204;28;20218;-47
2022/08/20 03:46:01;;;;;;;;;;;;;;;24.99;49.13;100009.28;2041938;28;19958;-47
2022/08/20 03:47:02;;;;;;;;;;;;;;;24.98;49.17;100010.28;2035576;29;19919;-48
2022/08/20 03:48:03;;;;;;;;;;;;;;;24.98;49.37;100002.03;2034131;29;20775;-48
2022/08/20 03:49:04;;;;;;;;;;;;;;;24.98;49.44;100007.53;2031912;29;19918;-47
2022/08/20 03:50:06;;;;;;;;;;;;;;;24.97;49.31;100005.84;2034269;29;19915;-46
2022/08/20 03:51:06;;;;;;;;;;;;;;;24.96;49.21;100005.00;2042405;29;19918;-47
2022/08/20 03:52:07;;;;;;;;;;;;;;;24.97;49.37;100005.84;2043444;28;20342;-47
2022/08/20 03:53:09;;;;;;;;;;;;;;;24.96;49.32;99999.47;2042860;28;19926;-46
2022/08/20 03:54:09;;;;;;;;;;;;;;;24.97;49.14;100014.13;2043673;29;20373;-47
2022/08/20 03:55:10;;;;;;;;;;;;;;;24.97;49.30;100008.59;2043418;28;19919;-47
2022/08/20 03:56:10;;;;;;;;;;;;;;;24.97;49.21;100005.84;2042109;28;19922;-45
2022/08/20 03:57:14;;;;;;;;;;;;;;;24.97;49.27;100011.34;2043654;28;19918;-45
2022/08/20 03:58:16;;;;;;;;;;;;;;;24.96;49.18;100002.22;2042434;28;19933;-46
2022/08/20 03:59:16;;;;;;;;;;;;;;;24.96;49.26;100005.00;2042389;28;20400;-46
2022/08/20 04:00:19;;;;;;;;;;;;;;;24.97;49.34;100009.44;2043060;28;19972;-45
2022/08/20 04:01:19;;;;;;;;;;;;;;;24.97;49.18;100005.84;2042214;28;19915;-47
2022/08/20 04:02:20;;;;;;;;;;;;;;;24.97;49.23;100005.84;2043165;28;19918;-48
2022/08/20 04:03:20;;;;;;;;;;;;;;;24.96;49.20;99998.59;2034652;29;19914;-46
2022/08/20 04:04:21;;;;;;;;;;;;;;;24.96;49.22;100005.00;2034423;29;19919;-47
2022/08/20 04:05:22;;;;;;;;;;;;;;;24.98;49.15;100007.53;2042532;28;19929;-46
2022/08/20 04:06:23;;;;;;;;;;;;;;;24.97;49.02;100005.84;2043583;29;20338;-45
2022/08/20 04:07:24;;;;;;;;;;;;;;;24.98;49.34;100010.28;2045337;28;19915;-46
2022/08/20 04:08:28;;;;;;;;;;;;;;;24.97;49.08;100005.84;2043342;28;19918;-45
2022/08/20 04:09:28;;;;;;;;;;;;;;;24.97;49.27;100011.34;2042538;28;19918;-47
2022/08/20 04:10:29;;;;;;;;;;;;;;;24.97;49.34;100009.44;2034791;29;19962;-47
2022/08/20 04:11:32;;;;;;;;;;;;;;;24.96;49.07;100007.75;2036684;29;20461;-46
2022/08/20 04:12:32;;;;;;;;;;;;;;;24.96;49.25;100005.00;2042989;28;19981;-46
2022/08/20 04:13:32;;;;;;;;;;;;;;;24.97;49.28;100011.34;2044736;28;19922;-46
2022/08/20 04:14:35;;;;;;;;;;;;;;;24.97;49.17;100016.88;2042286;28;19961;-47
2022/08/20 04:15:35;;;;;;;;;;;;;;;24.96;49.09;100010.50;2035447;29;19922;-46
2022/08/20 04:16:36;;;;;;;;;;;;;;;24.97;49.38;100012.19;2034933;29;19950;-46
2022/08/20 04:17:40;;;;;;;;;;;;;;;24.97;49.31;100014.97;2042929;28;20307;-46
2022/08/20 04:18:42;;;;;;;;;;;;;;;24.96;49.35;100010.50;2036538;29;19915;-46
2022/08/20 04:19:43;;;;;;;;;;;;;;;24.96;49.09;100015.13;2027660;29;19924;-46
2022/08/20 04:20:43;;;;;;;;;;;;;;;24.96;49.30;100012.38;2030885;29;20375;-47
2022/08/20 04:21:47;;;;;;;;;;;;;;;24.97;49.21;100005.84;2036094;29;19919;-47
2022/08/20 04:22:48;;;;;;;;;;;;;;;24.97;49.29;100008.59;2042865;29;19978;-47
2022/08/20 04:23:49;;;;;;;;;;;;;;;24.96;49.46;100013.25;2043292;28;19922;-48
2022/08/20 04:24:49;;;;;;;;;;;;;;;24.96;49.21;100009.63;2043413;29;19914;-50
2022/08/20 04:25:49;;;;;;;;;;;;;;;24.96;49.38;100016.03;2042270;28;19925;-47
2022/08/20 04:26:50;;;;;;;;;;;;;;;24.95;49.45;100008.78;2036822;29;19919;-46
2022/08/20 04:27:50;;;;;;;;;;;;;;;24.95;49.17;100011.53;2035293;29;19919;-45
2022/08/20 04:28:51;;;;;;;;;;;;;;;24.95;49.11;100017.06;2042450;28;20125;-46
2022/08/20 04:29:52;;;;;;;;;;;;;;;24.95;49.25;100007.94;2045345;28;19921;-47
2022/08/20 04:30:53;;;;;;;;;;;;;;;24.95;49.33;100013.44;2044103;28;19915;-51
2022/08/20 04:31:54;;;;;;;;;;;;;;;24.95;49.24;100016.19;2041750;28;19922;-46
2022/08/20 04:32:55;;;;;;;;;;;;;;;24.95;49.22;100007.94;2036579;28;20198;-45
2022/08/20 04:33:55;;;;;;;;;;;;;;;24.94;49.39;100017.22;2044034;29;19918;-46
2022/08/20 04:34:56;;;;;;;;;;;;;;;24.94;49.08;100017.22;2041258;28;20038;-45
2022/08/20 04:35:59;;;;;;;;;;;;;;;24.94;49.19;100019.97;2043293;28;20443;-47
2022/08/20 04:37:00;;;;;;;;;;;;;;;24.94;49.30;100017.22;2035118;29;19918;-46
2022/08/20 04:38:02;;;;;;;;;;;;;;;24.95;49.31;100013.44;2033105;29;19927;-46
2022/08/20 04:39:02;;;;;;;;;;;;;;;24.94;49.35;100028.25;2042791;29;19918;-46
2022/08/20 04:41:23;;;;;;;;;;;;;;;24.93;49.27;100018.28;2044987;28;19911;-46
2022/08/20 04:42:23;;;;;;;;;;;;;;;24.93;49.34;100027.41;2044328;28;20513;-47
2022/08/20 04:43:26;;;;;;;;;;;;;;;24.93;49.24;100032.06;2042714;28;19927;-47
2022/08/20 04:44:26;;;;;;;;;;;;;;;24.94;49.11;100025.50;2042073;28;19914;-48
2022/08/20 04:45:26;;;;;;;;;;;;;;;24.94;49.35;100033.78;2034584;29;19925;-47
2022/08/20 04:46:27;;;;;;;;;;;;;;;24.94;49.12;100023.63;2034666;29;19923;-46
2022/08/20 04:47:27;;;;;;;;;;;;;;;24.94;49.41;100033.78;2033755;29;19971;-47
2022/08/20 04:48:28;;;;;;;;;;;;;;;24.94;49.28;100025.50;2037303;29;19923;-47
2022/08/20 04:49:28;;;;;;;;;;;;;;;24.93;49.11;100027.41;2042406;29;20309;-46
2022/08/20 04:50:33;;;;;;;;;;;;;;;24.94;49.40;100022.75;2042422;28;20606;-45
2022/08/20 04:51:33;;;;;;;;;;;;;;;24.94;49.19;100025.50;2042481;28;19919;-46
2022/08/20 04:52:34;;;;;;;;;;;;;;;24.93;49.24;100018.28;2042903;28;20408;-45
2022/08/20 04:53:35;;;;;;;;;;;;;;;24.94;49.30;100017.22;2034342;29;20013;-48
2022/08/20 04:54:35;;;;;;;;;;;;;;;24.94;49.27;100025.50;2031884;29;20367;-50
2022/08/20 04:55:38;;;;;;;;;;;;;;;24.94;49.07;100022.75;2034575;29;19918;-47
2022/08/20 04:56:38;;;;;;;;;;;;;;;24.94;49.28;100019.97;2034171;29;19923;-49
2022/08/20 04:57:38;;;;;;;;;;;;;;;24.94;49.16;100022.75;2025916;29;19926;-45
2022/08/20 04:58:39;;;;;;;;;;;;;;;24.94;49.31;100022.75;2034888;29;19918;-45
2022/08/20 04:59:39;;;;;;;;;;;;;;;24.94;49.11;100022.75;2040784;28;19922;-46
2022/08/20 05:00:40;;;;;;;;;;;;;;;24.93;49.10;100027.41;2043036;29;19918;-45
2022/08/20 05:01:40;;;;;;;;;;;;;;;24.94;49.32;100022.75;2042892;28;20904;-46
2022/08/20 05:02:41;;;;;;;;;;;;;;;24.93;49.28;100026.56;2043427;29;19925;-44
2022/08/20 05:03:41;;;;;;;;;;;;;;;24.93;49.15;100019.13;2041531;28;19926;-47
2022/08/20 05:04:41;;;;;;;;;;;;;;;24.94;49.37;100025.50;2041156;28;20391;-48
2022/08/20 05:05:43;;;;;;;;;;;;;;;24.94;49.15;100028.25;2043483;29;20276;-50
2022/08/20 05:06:44;;;;;;;;;;;;;;;24.93;49.12;100024.66;2044991;28;19949;-46
2022/08/20 05:07:44;;;;;;;;;;;;;;;24.93;49.26;100021.88;2042552;28;19942;-45
2022/08/20 05:08:45;;;;;;;;;;;;;;;24.93;49.33;100027.41;2043716;28;19942;-46
2022/08/20 05:09:45;;;;;;;;;;;;;;;24.93;49.27;100032.06;2042219;28;19973;-47
2022/08/20 05:10:46;;;;;;;;;;;;;;;24.93;49.32;100032.91;2042829;29;19918;-48
2022/08/20 05:11:46;;;;;;;;;;;;;;;24.92;49.29;100031.22;2042617;28;19919;-46
2022/08/20 05:12:46;;;;;;;;;;;;;;;24.92;49.28;100031.22;2041473;28;19918;-46
2022/08/20 05:13:47;;;;;;;;;;;;;;;24.92;49.34;100030.38;2035383;29;19991;-45
2022/08/20 05:14:47;;;;;;;;;;;;;;;24.92;49.12;100035.88;2035939;29;19918;-46
2022/08/20 05:15:48;;;;;;;;;;;;;;;24.92;49.29;100030.38;2042863;28;19951;-47
2022/08/20 05:16:49;;;;;;;;;;;;;;;24.91;49.30;100034.16;2042805;29;19925;-47
2022/08/20 05:17:53;;;;;;;;;;;;;;;24.91;49.24;100031.41;2042968;28;19914;-47